Time;durP1;ratioP1;P1;durP2;ratioP2;P2;SDS_P1;SDS_P2;PMS_P1;PMS_P2;Temp;Humidity;BMP_temperature;BMP_pressure;BME280_temperature;BME280_humidity;BME280_pressure;Samples;Min_cycle;Max_cycle;Signal;HPM_P1;HPM_P2
2022/08/16 00:01:55;;;;;;;11.38;5.43;;;22.00;99.90;;;;;;5050276;28;20036;-73
2022/08/16 00:04:20;;;;;;;8.65;5.20;;;21.90;99.90;;;;;;5047210;28;20522;-73
2022/08/16 00:06:46;;;;;;;8.10;4.70;;;21.90;99.90;;;;;;5049087;28;20076;-72
2022/08/16 00:09:12;;;;;;;15.15;4.78;;;21.80;99.90;;;;;;5050573;28;20060;-74
2022/08/16 00:11:39;;;;;;;7.63;4.63;;;21.80;99.90;;;;;;5053431;28;20031;-72
2022/08/16 00:14:08;;;;;;;7.00;4.35;;;21.70;99.90;;;;;;5052309;28;20021;-72
2022/08/16 00:16:34;;;;;;;8.77;4.82;;;21.70;99.90;;;;;;5053508;28;20033;-73
2022/08/16 00:19:00;;;;;;;14.70;5.55;;;21.60;99.90;;;;;;5053651;28;20075;-72
2022/08/16 00:21:26;;;;;;;10.40;5.45;;;21.60;99.90;;;;;;5034818;28;20076;-75
2022/08/16 00:23:51;;;;;;;6.90;4.22;;;21.50;99.90;;;;;;5053689;28;20284;-72
2022/08/16 00:26:17;;;;;;;10.05;4.95;;;21.50;99.90;;;;;;5053851;28;20037;-70
2022/08/16 00:28:43;;;;;;;8.93;4.45;;;21.50;99.90;;;;;;5052732;28;20030;-72
2022/08/16 00:31:08;;;;;;;6.82;4.18;;;21.40;99.90;;;;;;5053648;28;20024;-72
2022/08/16 00:33:34;;;;;;;8.20;4.60;;;21.40;99.90;;;;;;5053265;28;20021;-71
2022/08/16 00:35:59;;;;;;;7.32;4.85;;;21.40;99.90;;;;;;5052901;28;20033;-72
2022/08/16 00:38:25;;;;;;;11.35;3.95;;;21.40;99.90;;;;;;5053527;28;20086;-73
2022/08/16 00:40:53;;;;;;;6.50;3.55;;;21.30;99.90;;;;;;5053043;28;20076;-72
2022/08/16 00:43:45;;;;;;;18.17;4.72;;;21.30;99.90;;;;;;5052855;28;20044;-70
2022/08/16 00:46:19;;;;;;;8.43;4.55;;;21.20;99.90;;;;;;5049955;28;20042;-72
2022/08/16 00:48:45;;;;;;;9.10;4.30;;;21.20;99.90;;;;;;5052200;28;20029;-72
2022/08/16 00:51:13;;;;;;;9.45;4.65;;;21.20;99.90;;;;;;5052850;28;20025;-73
2022/08/16 00:53:39;;;;;;;6.47;3.80;;;21.20;99.90;;;;;;5053004;28;20018;-71
2022/08/16 00:56:10;;;;;;;6.55;3.50;;;21.20;99.90;;;;;;5034657;28;20076;-74
2022/08/16 00:58:40;;;;;;;6.72;4.28;;;21.20;99.90;;;;;;5051290;28;20762;-72
2022/08/16 01:01:06;;;;;;;5.68;3.50;;;21.20;99.90;;;;;;5052047;28;20032;-72
2022/08/16 01:03:32;;;;;;;5.82;3.15;;;21.20;99.90;;;;;;5052412;28;20021;-72
2022/08/16 01:05:59;;;;;;;9.65;3.47;;;21.10;99.90;;;;;;5052620;28;20131;-72
2022/08/16 01:08:25;;;;;;;7.13;3.70;;;21.10;99.90;;;;;;5052243;28;20029;-73
2022/08/16 01:10:52;;;;;;;7.55;3.58;;;21.10;99.90;;;;;;5052810;28;20021;-74
2022/08/16 01:13:22;;;;;;;8.25;3.40;;;21.10;99.90;;;;;;5052000;28;20118;-72
2022/08/16 01:15:55;;;;;;;6.88;4.10;;;21.10;99.90;;;;;;5052354;28;20030;-73
2022/08/16 01:18:27;;;;;;;6.53;3.97;;;21.00;99.90;;;;;;5034150;28;20029;-74
2022/08/16 01:21:03;;;;;;;10.88;4.80;;;21.00;99.90;;;;;;5051545;28;20051;-73
2022/08/16 01:23:47;;;;;;;5.30;2.83;;;21.00;99.90;;;;;;5051585;28;20045;-73
2022/08/16 01:26:14;;;;;;;10.77;4.32;;;21.00;99.90;;;;;;5051736;28;20115;-72
2022/08/16 01:28:42;;;;;;;9.30;4.63;;;21.00;99.90;;;;;;5052356;28;20955;-73
2022/08/16 01:31:09;;;;;;;9.02;4.38;;;20.90;99.90;;;;;;5052021;28;20021;-71
2022/08/16 01:33:34;;;;;;;7.45;4.57;;;20.90;99.90;;;;;;5052183;28;20029;-72
2022/08/16 01:36:06;;;;;;;15.25;4.38;;;20.90;99.90;;;;;;5050874;28;20021;-73
2022/08/16 01:38:55;;;;;;;8.75;4.88;;;20.80;99.90;;;;;;5051664;28;20017;-72
2022/08/16 01:41:26;;;;;;;6.32;4.13;;;20.80;99.90;;;;;;5051596;28;20033;-73
2022/08/16 01:43:52;;;;;;;10.70;4.55;;;20.80;99.90;;;;;;5050999;28;20057;-72
2022/08/16 01:46:43;;;;;;;8.52;4.97;;;20.70;99.90;;;;;;5052306;28;20025;-73
2022/08/16 01:49:35;;;;;;;7.18;4.72;;;20.70;99.90;;;;;;5051902;28;20096;-71
2022/08/16 01:52:15;;;;;;;6.60;4.00;;;20.70;99.90;;;;;;5050484;28;20048;-72
2022/08/16 01:54:41;;;;;;;8.32;4.32;;;20.70;99.90;;;;;;5033460;28;20468;-73
2022/08/16 01:57:07;;;;;;;5.63;3.67;;;20.70;99.90;;;;;;5051043;28;20017;-72
2022/08/16 01:59:35;;;;;;;6.93;4.30;;;20.70;99.90;;;;;;5051351;28;20025;-73
2022/08/16 02:02:01;;;;;;;5.70;3.67;;;20.60;99.90;;;;;;5051050;28;20053;-74
2022/08/16 02:04:28;;;;;;;9.25;4.82;;;20.60;99.90;;;;;;5051610;28;20021;-73
2022/08/16 02:06:54;;;;;;;8.73;4.80;;;20.60;99.90;;;;;;5050974;28;20045;-73
2022/08/16 02:09:22;;;;;;;10.20;4.90;;;20.70;99.90;;;;;;5051690;28;20029;-73
2022/08/16 02:11:51;;;;;;;7.82;3.92;;;20.70;99.90;;;;;;5052014;28;20024;-73
2022/08/16 02:14:17;;;;;;;10.88;5.05;;;20.70;99.90;;;;;;5051881;28;20085;-74
2022/08/16 02:16:43;;;;;;;7.95;4.25;;;20.70;99.90;;;;;;5050804;28;20037;-73
2022/08/16 02:19:10;;;;;;;4.85;3.58;;;20.60;99.90;;;;;;5051330;28;20013;-73
2022/08/16 02:21:36;;;;;;;8.80;5.25;;;20.60;99.90;;;;;;5051768;28;20136;-73
2022/08/16 02:24:02;;;;;;;9.27;5.57;;;20.60;99.90;;;;;;5032297;28;20026;-74
2022/08/16 02:26:28;;;;;;;11.35;6.07;;;20.60;99.90;;;;;;5051941;28;20029;-72
2022/08/16 02:28:55;;;;;;;12.52;6.82;;;20.60;99.90;;;;;;5053196;28;20078;-72
2022/08/16 02:31:21;;;;;;;12.15;5.50;;;20.60;99.90;;;;;;5052946;28;20113;-73
2022/08/16 02:33:47;;;;;;;9.32;5.45;;;20.60;99.90;;;;;;5047257;28;20493;-71
2022/08/16 02:36:14;;;;;;;8.55;6.05;;;20.60;99.90;;;;;;5050030;28;20033;-73
2022/08/16 02:38:40;;;;;;;10.40;5.38;;;20.50;99.90;;;;;;5052141;28;20043;-73
2022/08/16 02:41:07;;;;;;;12.98;6.22;;;20.50;99.90;;;;;;5051888;28;20035;-72
2022/08/16 02:43:33;;;;;;;10.50;5.70;;;20.40;99.90;;;;;;5051493;28;20385;-72
2022/08/16 02:46:01;;;;;;;10.95;6.60;;;20.50;99.90;;;;;;5052545;28;20064;-72
2022/08/16 02:48:29;;;;;;;7.85;5.75;;;20.50;99.90;;;;;;5051657;28;20029;-73
2022/08/16 02:51:00;;;;;;;22.75;6.80;;;20.40;99.90;;;;;;5052106;28;20052;-72
2022/08/16 02:53:25;;;;;;;13.00;6.13;;;20.40;99.90;;;;;;5050887;28;20018;-73
2022/08/16 02:55:52;;;;;;;12.85;5.13;;;20.40;99.90;;;;;;5051837;28;20056;-74
2022/08/16 02:58:19;;;;;;;10.23;5.53;;;20.40;99.90;;;;;;5052161;28;20070;-71
2022/08/16 03:00:45;;;;;;;11.93;5.68;;;20.30;99.90;;;;;;5051649;28;20038;-73
2022/08/16 03:03:11;;;;;;;18.90;5.75;;;20.40;99.90;;;;;;5051907;28;20031;-72
2022/08/16 03:05:36;;;;;;;10.45;6.25;;;20.30;99.90;;;;;;5052381;28;20053;-72
2022/08/16 03:08:02;;;;;;;10.45;6.05;;;20.30;99.90;;;;;;5033370;28;20028;-75
2022/08/16 03:10:28;;;;;;;12.07;6.53;;;20.30;99.90;;;;;;5051814;28;20051;-71
2022/08/16 03:12:55;;;;;;;11.48;5.30;;;20.30;99.90;;;;;;5052549;28;20497;-73
2022/08/16 03:15:21;;;;;;;9.63;5.18;;;20.20;99.90;;;;;;5051495;28;20028;-74
2022/08/16 03:17:46;;;;;;;23.75;6.32;;;20.30;99.90;;;;;;5034006;28;20086;-72
2022/08/16 03:20:14;;;;;;;13.02;5.97;;;20.30;99.90;;;;;;5051979;28;20505;-72
2022/08/16 03:22:40;;;;;;;9.23;6.15;;;20.30;99.90;;;;;;5051578;28;20021;-73
2022/08/16 03:25:10;;;;;;;9.02;5.65;;;20.30;99.90;;;;;;5051639;28;20092;-74
2022/08/16 03:27:37;;;;;;;11.27;6.43;;;20.30;99.90;;;;;;5052099;28;20029;-74
2022/08/16 03:30:27;;;;;;;9.90;6.55;;;20.30;99.90;;;;;;5040801;28;20087;-73
2022/08/16 03:32:53;;;;;;;9.00;5.40;;;20.20;99.90;;;;;;5051915;28;20029;-73
2022/08/16 03:35:23;;;;;;;12.38;6.20;;;20.20;99.90;;;;;;5051625;28;20033;-73
2022/08/16 03:38:02;;;;;;;10.32;6.78;;;20.10;99.90;;;;;;5051150;28;20033;-73
2022/08/16 03:40:28;;;;;;;9.32;5.40;;;20.20;99.90;;;;;;5033203;28;20030;-73
2022/08/16 03:42:54;;;;;;;12.55;6.97;;;20.20;99.90;;;;;;5051173;28;21342;-73
2022/08/16 03:45:25;;;;;;;15.57;6.82;;;20.20;99.90;;;;;;5051677;28;20405;-73
2022/08/16 03:47:50;;;;;;;11.80;6.90;;;20.20;99.90;;;;;;5051484;28;20021;-74
2022/08/16 03:50:17;;;;;;;14.73;7.13;;;20.20;99.90;;;;;;5051247;28;20047;-72
2022/08/16 03:52:43;;;;;;;14.60;8.43;;;20.10;99.90;;;;;;5050448;28;20045;-74
2022/08/16 03:55:10;;;;;;;11.75;7.07;;;20.20;99.90;;;;;;5051385;28;20078;-75
2022/08/16 03:57:36;;;;;;;13.15;7.72;;;20.10;99.90;;;;;;5051773;28;20039;-73
2022/08/16 04:00:18;;;;;;;14.05;8.38;;;20.00;99.90;;;;;;5050755;28;20096;-73
2022/08/16 04:02:44;;;;;;;14.43;7.85;;;20.00;99.90;;;;;;5050802;28;20060;-73
2022/08/16 04:05:12;;;;;;;18.25;8.60;;;19.90;99.90;;;;;;5050435;28;20049;-73
2022/08/16 04:07:38;;;;;;;14.30;7.78;;;19.80;99.90;;;;;;5050869;28;20060;-73
2022/08/16 04:10:05;;;;;;;19.90;8.45;;;19.80;99.90;;;;;;5051624;28;20025;-72
2022/08/16 04:12:31;;;;;;;15.45;9.05;;;19.80;99.90;;;;;;5050790;28;20025;-73
2022/08/16 04:14:57;;;;;;;15.50;7.75;;;19.80;99.90;;;;;;5032235;28;20366;-71
2022/08/16 04:17:23;;;;;;;13.98;8.65;;;19.70;99.90;;;;;;5051823;28;20087;-72
2022/08/16 04:19:50;;;;;;;13.90;8.50;;;19.80;99.90;;;;;;5051191;28;20171;-73
2022/08/16 04:22:16;;;;;;;14.70;8.73;;;19.70;99.90;;;;;;5050619;28;20068;-71
2022/08/16 04:24:42;;;;;;;15.93;9.15;;;19.70;99.90;;;;;;5049081;28;20025;-72
2022/08/16 04:27:07;;;;;;;15.40;9.27;;;19.80;99.90;;;;;;5051230;28;20028;-72
2022/08/16 04:29:33;;;;;;;16.30;9.43;;;19.70;99.90;;;;;;5050248;28;20021;-72
2022/08/16 04:31:59;;;;;;;20.67;9.30;;;19.70;99.90;;;;;;5032768;28;20101;-72
2022/08/16 04:34:32;;;;;;;15.98;8.27;;;19.80;99.90;;;;;;5050437;28;20076;-74
2022/08/16 04:36:58;;;;;;;12.15;7.97;;;19.70;99.90;;;;;;5051299;28;20040;-72
2022/08/16 04:39:25;;;;;;;17.75;9.20;;;19.70;99.90;;;;;;5050576;28;20034;-72
2022/08/16 04:41:52;;;;;;;15.52;7.65;;;19.70;99.90;;;;;;5049842;28;20721;-73
2022/08/16 04:44:17;;;;;;;15.13;8.18;;;19.70;99.90;;;;;;5050912;28;20021;-72
2022/08/16 04:46:43;;;;;;;18.80;8.02;;;19.80;99.90;;;;;;5050977;28;20201;-72
2022/08/16 04:49:10;;;;;;;16.45;7.85;;;19.60;99.90;;;;;;5032268;28;20017;-71
2022/08/16 04:51:36;;;;;;;15.98;7.53;;;19.70;99.90;;;;;;5051276;28;20052;-72
2022/08/16 04:54:02;;;;;;;13.75;7.47;;;19.70;99.90;;;;;;5050727;28;20048;-72
2022/08/16 04:56:28;;;;;;;13.85;7.90;;;19.70;99.90;;;;;;5051758;28;20051;-70
2022/08/16 04:58:54;;;;;;;16.40;7.90;;;19.70;99.90;;;;;;5055307;28;20036;-71
2022/08/16 05:01:21;;;;;;;14.70;7.10;;;19.70;99.90;;;;;;5053771;28;20049;-74
2022/08/16 05:03:47;;;;;;;11.55;6.65;;;19.70;99.90;;;;;;5054208;28;20056;-72
2022/08/16 05:06:13;;;;;;;9.10;5.82;;;19.70;99.90;;;;;;5054314;28;20056;-74
2022/08/16 05:08:38;;;;;;;16.45;8.43;;;19.80;99.90;;;;;;5054327;28;20022;-73
2022/08/16 05:11:07;;;;;;;11.93;7.18;;;19.80;99.90;;;;;;5054121;28;20025;-73
2022/08/16 05:13:35;;;;;;;17.88;8.45;;;19.90;99.90;;;;;;5053929;28;20055;-73
2022/08/16 05:16:00;;;;;;;17.85;8.15;;;19.90;99.90;;;;;;5034350;28;20033;-71
2022/08/16 05:18:26;;;;;;;21.63;8.80;;;19.90;99.90;;;;;;5053596;28;20036;-75
2022/08/16 05:20:52;;;;;;;20.83;9.68;;;20.00;99.90;;;;;;5052165;28;20076;-75
2022/08/16 05:23:18;;;;;;;15.73;8.73;;;20.10;99.90;;;;;;5052320;28;20028;-72
2022/08/16 05:25:44;;;;;;;15.43;7.78;;;20.00;99.90;;;;;;5052616;28;20094;-73
2022/08/16 05:28:10;;;;;;;16.88;9.05;;;20.10;99.90;;;;;;5034890;28;20021;-73
2022/08/16 05:30:37;;;;;;;16.67;9.45;;;20.20;99.90;;;;;;5051460;28;20466;-73
2022/08/16 05:33:04;;;;;;;27.27;9.20;;;20.20;99.90;;;;;;5052543;28;20408;-74
2022/08/16 05:35:29;;;;;;;17.42;9.32;;;20.30;99.90;;;;;;5053518;28;20076;-73
2022/08/16 05:37:55;;;;;;;19.63;9.55;;;20.30;99.90;;;;;;5053239;28;20033;-73
2022/08/16 05:40:21;;;;;;;29.92;9.23;;;20.40;99.90;;;;;;5052988;28;20045;-75
2022/08/16 05:42:47;;;;;;;19.13;9.48;;;20.40;99.90;;;;;;5048630;28;20029;-73
2022/08/16 05:45:13;;;;;;;16.10;8.80;;;20.40;99.90;;;;;;5050259;28;20071;-73
2022/08/16 05:47:38;;;;;;;18.52;9.27;;;20.40;99.90;;;;;;5036397;28;20021;-73
2022/08/16 05:50:05;;;;;;;16.98;9.02;;;20.40;99.90;;;;;;5052441;28;20041;-73
2022/08/16 05:52:31;;;;;;;18.50;9.63;;;20.40;99.90;;;;;;5052676;28;20027;-73
2022/08/16 05:54:56;;;;;;;14.98;8.88;;;20.50;99.90;;;;;;5035283;28;20093;-73
2022/08/16 05:57:23;;;;;;;17.42;9.23;;;20.50;99.90;;;;;;5053163;28;20104;-75
2022/08/16 05:59:49;;;;;;;16.20;8.98;;;20.60;99.90;;;;;;5034995;28;20417;-75
2022/08/16 06:02:15;;;;;;;18.48;9.43;;;20.70;99.90;;;;;;5034476;28;20024;-72
2022/08/16 06:04:41;;;;;;;18.95;9.77;;;20.70;99.90;;;;;;5051332;28;20050;-73
2022/08/16 06:07:07;;;;;;;16.45;9.30;;;20.70;99.90;;;;;;5052212;28;20075;-74
2022/08/16 06:09:33;;;;;;;14.20;9.20;;;20.70;99.90;;;;;;5052868;28;20028;-73
2022/08/16 06:12:01;;;;;;;23.70;9.40;;;20.70;99.90;;;;;;5051413;28;20052;-71
2022/08/16 06:14:28;;;;;;;16.48;9.43;;;20.80;99.90;;;;;;5052927;28;20147;-72
2022/08/16 06:16:54;;;;;;;16.48;8.35;;;20.80;99.90;;;;;;5053120;28;20347;-72
2022/08/16 06:19:21;;;;;;;18.70;8.80;;;20.90;99.90;;;;;;5034776;28;20025;-72
2022/08/16 06:21:47;;;;;;;21.48;10.43;;;20.90;99.90;;;;;;5051208;28;20087;-73
2022/08/16 06:24:13;;;;;;;15.35;8.30;;;20.90;99.90;;;;;;5052823;28;20025;-73
2022/08/16 06:26:39;;;;;;;16.42;9.45;;;21.00;99.90;;;;;;5050298;28;20056;-73
2022/08/16 06:29:04;;;;;;;13.18;8.07;;;21.00;99.90;;;;;;5051484;28;20029;-71
2022/08/16 06:31:30;;;;;;;20.88;10.25;;;21.10;99.90;;;;;;5051801;28;20033;-72
2022/08/16 06:33:57;;;;;;;20.58;10.15;;;21.10;99.90;;;;;;5052624;28;20029;-72
2022/08/16 06:36:22;;;;;;;13.77;8.20;;;21.20;99.90;;;;;;5050983;28;20073;-73
2022/08/16 06:38:49;;;;;;;18.92;9.20;;;21.20;99.90;;;;;;5049806;28;20026;-74
2022/08/16 06:41:16;;;;;;;16.20;8.43;;;21.10;99.90;;;;;;5049631;28;20119;-71
2022/08/16 06:43:42;;;;;;;20.45;9.13;;;21.00;99.90;;;;;;5032748;28;20026;-72
2022/08/16 06:46:21;;;;;;;14.95;8.77;;;21.10;99.90;;;;;;5049900;28;20025;-72
2022/08/16 06:48:47;;;;;;;16.75;8.85;;;21.20;99.90;;;;;;5051003;28;20029;-72
2022/08/16 06:51:12;;;;;;;13.02;8.27;;;21.20;99.90;;;;;;5048119;28;20084;-72
2022/08/16 06:53:38;;;;;;;17.42;9.18;;;21.30;99.90;;;;;;5051313;28;20428;-73
2022/08/16 06:56:06;;;;;;;17.13;8.23;;;21.30;99.90;;;;;;5032707;28;20116;-71
2022/08/16 06:58:32;;;;;;;15.68;8.52;;;21.40;99.90;;;;;;5046773;28;20064;-73
2022/08/16 07:01:00;;;;;;;19.52;9.52;;;21.50;99.90;;;;;;5047290;28;20109;-72
2022/08/16 07:03:26;;;;;;;13.85;7.82;;;21.50;99.90;;;;;;5050460;28;20052;-72
2022/08/16 07:05:52;;;;;;;15.32;8.77;;;21.60;99.90;;;;;;5050773;28;20052;-73
2022/08/16 07:08:18;;;;;;;16.13;8.85;;;21.70;99.90;;;;;;5051089;28;20033;-73
2022/08/16 07:10:43;;;;;;;12.77;7.65;;;21.70;99.90;;;;;;5034136;28;20021;-71
2022/08/16 07:13:09;;;;;;;19.27;8.80;;;21.80;99.90;;;;;;5051495;28;20034;-73
2022/08/16 07:15:35;;;;;;;19.17;8.85;;;21.90;99.90;;;;;;5033390;28;20032;-73
2022/08/16 07:18:02;;;;;;;16.13;8.85;;;22.00;99.90;;;;;;5051925;28;20053;-74
2022/08/16 07:20:27;;;;;;;13.88;8.32;;;22.00;99.90;;;;;;5048591;28;20040;-74
2022/08/16 07:22:54;;;;;;;18.88;8.20;;;22.00;99.90;;;;;;5032507;28;20119;-74
2022/08/16 07:25:21;;;;;;;16.70;9.25;;;22.10;99.90;;;;;;5033339;28;20458;-74
2022/08/16 07:27:48;;;;;;;27.55;9.02;;;22.10;99.90;;;;;;5049916;28;20040;-73
2022/08/16 07:30:16;;;;;;;14.60;8.25;;;22.20;99.90;;;;;;5051647;28;20021;-73
2022/08/16 07:32:41;;;;;;;14.27;7.80;;;22.20;99.90;;;;;;5050107;28;20674;-73
2022/08/16 07:35:08;;;;;;;13.25;7.85;;;22.20;99.90;;;;;;5050742;28;20021;-74
2022/08/16 07:37:34;;;;;;;14.05;7.80;;;22.30;99.90;;;;;;5051692;28;20033;-73
2022/08/16 07:40:00;;;;;;;20.80;8.38;;;22.30;99.90;;;;;;5050780;28;20100;-74
2022/08/16 07:42:26;;;;;;;14.80;7.40;;;22.40;99.90;;;;;;5050350;28;20366;-74
2022/08/16 07:44:52;;;;;;;19.75;8.00;;;22.40;99.90;;;;;;5051913;28;20029;-73
2022/08/16 07:47:18;;;;;;;23.30;8.20;;;22.40;99.90;;;;;;5050897;28;20083;-73
2022/08/16 07:49:43;;;;;;;23.10;8.45;;;22.50;99.90;;;;;;5051391;28;20032;-74
2022/08/16 07:52:09;;;;;;;13.35;7.95;;;22.50;99.90;;;;;;5049992;28;20444;-71
2022/08/16 07:54:34;;;;;;;17.73;7.72;;;22.60;99.90;;;;;;5051419;28;20048;-73
2022/08/16 07:57:00;;;;;;;17.10;8.38;;;22.60;99.90;;;;;;5049625;28;20485;-75
2022/08/16 07:59:25;;;;;;;20.70;7.53;;;22.60;99.90;;;;;;5050974;28;20066;-72
2022/08/16 08:01:52;;;;;;;23.50;8.40;;;22.80;99.90;;;;;;5050150;28;20079;-73
2022/08/16 08:04:19;;;;;;;15.18;7.47;;;22.90;99.90;;;;;;5051107;28;20366;-73
2022/08/16 08:06:45;;;;;;;16.88;7.03;;;22.90;99.90;;;;;;5049498;28;20069;-72
2022/08/16 08:09:11;;;;;;;12.23;8.32;;;23.00;99.90;;;;;;5051154;28;20112;-74
2022/08/16 08:11:37;;;;;;;13.93;7.45;;;23.10;99.90;;;;;;5051363;28;20034;-73
2022/08/16 08:14:03;;;;;;;14.38;6.28;;;23.10;99.90;;;;;;5050411;28;20528;-73
2022/08/16 08:16:28;;;;;;;13.27;6.45;;;23.20;99.90;;;;;;5048654;28;20030;-74
2022/08/16 08:18:54;;;;;;;11.93;6.88;;;23.30;99.90;;;;;;5051537;28;20421;-74
2022/08/16 08:21:23;;;;;;;10.98;6.70;;;23.30;99.90;;;;;;5050865;28;20037;-73
2022/08/16 08:23:50;;;;;;;19.80;6.28;;;23.40;99.90;;;;;;5050646;28;20366;-74
2022/08/16 08:26:16;;;;;;;8.60;5.47;;;23.50;99.90;;;;;;5050559;28;20027;-73
2022/08/16 08:28:42;;;;;;;11.48;5.78;;;23.60;99.90;;;;;;5047994;28;20029;-72
2022/08/16 08:31:08;;;;;;;12.07;5.75;;;23.70;99.90;;;;;;5051631;28;20071;-73
2022/08/16 08:33:35;;;;;;;10.02;5.55;;;23.90;99.90;;;;;;5036948;28;20022;-75
2022/08/16 08:36:06;;;;;;;17.02;6.85;;;24.00;99.90;;;;;;5045491;28;20029;-72
2022/08/16 08:38:34;;;;;;;10.27;6.05;;;24.10;99.90;;;;;;5050438;28;20025;-74
2022/08/16 08:41:00;;;;;;;9.23;5.22;;;24.20;99.90;;;;;;5054544;28;20105;-74
2022/08/16 08:43:27;;;;;;;11.52;5.65;;;24.40;99.90;;;;;;5030970;28;20032;-74
2022/08/16 08:45:57;;;;;;;8.52;5.32;;;24.50;99.90;;;;;;5032091;28;20033;-72
2022/08/16 08:48:24;;;;;;;17.33;6.18;;;24.60;99.90;;;;;;5053104;28;20116;-73
2022/08/16 08:50:50;;;;;;;22.25;6.05;;;24.70;99.90;;;;;;5045558;28;20128;-75
2022/08/16 08:53:16;;;;;;;12.23;5.55;;;24.90;99.90;;;;;;5049334;28;20033;-74
2022/08/16 08:55:42;;;;;;;16.23;4.43;;;25.10;99.90;;;;;;5051367;28;20040;-74
2022/08/16 08:58:07;;;;;;;8.15;3.97;;;25.20;99.90;;;;;;5054007;28;20025;-72
2022/08/16 09:00:34;;;;;;;9.30;3.88;;;25.20;99.90;;;;;;5054363;28;20033;-77
2022/08/16 09:03:00;;;;;;;10.25;4.70;;;25.30;99.90;;;;;;5052978;28;20018;-72
2022/08/16 09:05:26;;;;;;;8.05;4.88;;;25.40;99.90;;;;;;5037752;28;20080;-74
2022/08/16 09:07:53;;;;;;;6.75;4.18;;;25.50;99.90;;;;;;5054770;28;20025;-76
2022/08/16 09:10:19;;;;;;;7.50;4.22;;;25.60;99.90;;;;;;5048807;28;20030;-72
2022/08/16 09:12:46;;;;;;;11.68;4.63;;;25.60;99.90;;;;;;5051008;28;20116;-71
2022/08/16 09:15:13;;;;;;;5.40;3.53;;;25.60;99.90;;;;;;5049380;28;20030;-71
2022/08/16 09:17:40;;;;;;;12.00;4.97;;;25.60;99.90;;;;;;5049717;28;20033;-73
2022/08/16 09:20:06;;;;;;;11.52;5.25;;;25.60;99.90;;;;;;5051945;28;20037;-74
2022/08/16 09:22:33;;;;;;;6.90;4.40;;;25.60;99.90;;;;;;5052241;28;20017;-71
2022/08/16 09:24:58;;;;;;;14.18;4.97;;;25.50;99.90;;;;;;5052483;28;20032;-70
2022/08/16 09:27:25;;;;;;;14.52;5.30;;;25.50;99.90;;;;;;5052130;28;20041;-72
2022/08/16 09:29:51;;;;;;;8.15;4.53;;;25.40;99.90;;;;;;5051555;28;20093;-72
2022/08/16 09:32:17;;;;;;;7.05;4.60;;;25.50;99.90;;;;;;5047209;28;20494;-72
2022/08/16 09:34:43;;;;;;;9.98;4.55;;;25.50;99.90;;;;;;5052477;28;20025;-74
2022/08/16 09:37:09;;;;;;;5.47;3.97;;;25.60;99.90;;;;;;5049588;28;20025;-74
2022/08/16 09:39:35;;;;;;;28.50;4.63;;;25.50;99.90;;;;;;5052180;28;20091;-72
2022/08/16 09:42:01;;;;;;;10.75;3.92;;;25.60;99.90;;;;;;5053070;28;20021;-71
2022/08/16 09:44:27;;;;;;;8.57;4.65;;;25.60;99.90;;;;;;5052054;28;20025;-71
2022/08/16 09:46:54;;;;;;;8.27;4.78;;;25.70;99.90;;;;;;5051182;28;20030;-72
2022/08/16 09:49:22;;;;;;;4.57;3.38;;;25.70;99.90;;;;;;5049921;28;20506;-73
2022/08/16 09:51:52;;;;;;;6.50;3.70;;;25.70;99.90;;;;;;5052624;28;20111;-72
2022/08/16 09:54:19;;;;;;;5.47;2.42;;;25.80;99.90;;;;;;5049667;28;20029;-72
2022/08/16 09:56:45;;;;;;;5.80;3.15;;;25.90;99.90;;;;;;5052679;28;20021;-74
2022/08/16 09:59:13;;;;;;;11.60;4.40;;;25.90;99.90;;;;;;5052281;28;20039;-73
2022/08/16 10:01:41;;;;;;;6.10;3.55;;;25.90;99.90;;;;;;5052047;28;20448;-73
2022/08/16 10:04:07;;;;;;;4.35;2.95;;;25.90;99.90;;;;;;5047592;28;21258;-71
2022/08/16 10:06:33;;;;;;;10.25;3.97;;;25.90;99.90;;;;;;5043623;28;20112;-72
2022/08/16 10:08:59;;;;;;;3.60;2.20;;;26.00;99.90;;;;;;5048342;28;20064;-73
2022/08/16 10:14:09;;;;;;;6.45;3.33;;;26.00;99.90;;;;;;5051437;28;20040;-70
2022/08/16 10:16:35;;;;;;;7.15;2.60;;;26.00;99.90;;;;;;5048437;28;20029;-70
2022/08/16 10:19:01;;;;;;;17.02;3.22;;;26.10;99.90;;;;;;5051290;28;20154;-72
2022/08/16 10:21:27;;;;;;;5.30;2.60;;;26.10;99.90;;;;;;5050760;28;20064;-72
2022/08/16 10:23:53;;;;;;;11.80;3.15;;;26.10;99.90;;;;;;5031668;28;20683;-71
2022/08/16 10:26:20;;;;;;;4.97;2.97;;;26.10;99.90;;;;;;5031531;28;20776;-70
2022/08/16 10:28:46;;;;;;;5.60;3.42;;;26.20;99.90;;;;;;5049746;28;20041;-72
2022/08/16 10:31:12;;;;;;;4.57;2.75;;;26.20;99.90;;;;;;5053244;28;20021;-70
2022/08/16 10:33:38;;;;;;;3.53;2.55;;;26.30;99.90;;;;;;5034486;28;20055;-70
2022/08/16 10:36:06;;;;;;;5.22;2.50;;;26.40;99.90;;;;;;5050870;28;20063;-74
2022/08/16 10:38:33;;;;;;;4.40;2.35;;;26.50;99.90;;;;;;5034587;28;20092;-75
2022/08/16 10:41:00;;;;;;;5.72;2.72;;;26.60;99.90;;;;;;5050113;28;20064;-71
2022/08/16 10:43:26;;;;;;;6.55;2.55;;;26.60;99.90;;;;;;5051290;28;20021;-74
2022/08/16 10:45:52;;;;;;;5.30;2.88;;;26.70;99.90;;;;;;5053222;28;20031;-76
2022/08/16 10:48:18;;;;;;;3.50;2.40;;;26.90;99.90;;;;;;5052105;28;20068;-69
2022/08/16 10:50:44;;;;;;;3.60;2.35;;;27.00;99.90;;;;;;5050695;28;20036;-78
2022/08/16 10:53:10;;;;;;;6.13;2.17;;;27.10;99.90;;;;;;5047067;28;20144;-72
2022/08/16 10:55:38;;;;;;;3.20;2.10;;;27.00;99.90;;;;;;5045246;28;20022;-71
2022/08/16 10:58:06;;;;;;;5.68;2.40;;;27.00;99.90;;;;;;5050343;28;20040;-68
2022/08/16 11:00:35;;;;;;;3.95;2.47;;;26.90;99.90;;;;;;5051675;28;20053;-68
2022/08/16 11:03:02;;;;;;;3.63;1.75;;;26.80;99.90;;;;;;5045900;28;20221;-73
2022/08/16 11:05:30;;;;;;;5.65;2.88;;;26.70;99.90;;;;;;5049206;28;20063;-70
2022/08/16 11:07:57;;;;;;;3.83;2.47;;;26.60;99.90;;;;;;5050101;28;20059;-70
2022/08/16 11:10:30;;;;;;;13.07;2.70;;;26.60;99.90;;;;;;5031461;28;20151;-71
2022/08/16 11:12:56;;;;;;;4.57;2.75;;;26.70;99.90;;;;;;5049825;28;20055;-69
2022/08/16 11:15:22;;;;;;;4.18;2.72;;;26.90;99.90;;;;;;5050380;28;20064;-70
2022/08/16 11:17:49;;;;;;;5.32;2.60;;;27.20;99.90;;;;;;5033466;28;20037;-76
2022/08/16 11:20:16;;;;;;;6.90;3.15;;;27.50;99.90;;;;;;5049620;28;20057;-72
2022/08/16 11:22:42;;;;;;;4.55;2.80;;;27.70;99.90;;;;;;5046703;28;20013;-72
2022/08/16 11:25:10;;;;;;;4.35;3.08;;;27.90;99.90;;;;;;5031519;28;20044;-70
2022/08/16 11:27:36;;;;;;;6.25;2.60;;;28.00;99.90;;;;;;5049965;28;20037;-75
2022/08/16 11:30:05;;;;;;;4.65;3.08;;;28.10;99.90;;;;;;5049990;28;20032;-72
2022/08/16 11:32:31;;;;;;;10.77;2.72;;;28.20;99.90;;;;;;5050582;28;20035;-72
2022/08/16 11:34:57;;;;;;;7.78;3.10;;;28.30;99.90;;;;;;5049209;28;20084;-72
2022/08/16 11:37:23;;;;;;;5.18;2.17;;;28.50;99.90;;;;;;5050863;28;20021;-70
2022/08/16 11:39:49;;;;;;;3.28;2.05;;;28.70;99.90;;;;;;5046848;28;20045;-69
2022/08/16 11:42:14;;;;;;;5.57;2.53;;;28.90;99.90;;;;;;5028380;28;20120;-73
2022/08/16 11:44:43;;;;;;;4.28;2.10;;;29.10;99.90;;;;;;5049485;28;20029;-73
2022/08/16 11:47:08;;;;;;;3.92;1.85;;;29.10;99.90;;;;;;5049463;28;20052;-71
2022/08/16 11:49:34;;;;;;;6.25;2.47;;;29.20;99.90;;;;;;5051270;28;20025;-73
2022/08/16 11:52:00;;;;;;;4.38;2.47;;;29.40;99.90;;;;;;5029293;28;20074;-72
2022/08/16 11:54:26;;;;;;;4.05;2.47;;;29.60;99.90;;;;;;5031279;28;20044;-73
2022/08/16 11:56:51;;;;;;;2.97;2.17;;;29.60;99.90;;;;;;5048609;28;20032;-75
2022/08/16 11:59:18;;;;;;;3.55;1.73;;;29.50;99.90;;;;;;5050694;28;20432;-70
2022/08/16 12:01:44;;;;;;;4.32;2.83;;;29.50;99.90;;;;;;5031929;28;20502;-69
2022/08/16 12:04:10;;;;;;;4.90;2.60;;;29.60;99.90;;;;;;5046949;28;20033;-69
2022/08/16 12:06:36;;;;;;;6.05;2.08;;;29.70;99.90;;;;;;5051736;28;20071;-70
2022/08/16 12:09:04;;;;;;;2.55;1.80;;;29.90;99.90;;;;;;5057158;28;20025;-69
2022/08/16 12:11:31;;;;;;;2.95;1.77;;;29.80;99.90;;;;;;5055865;28;20021;-70
2022/08/16 12:14:01;;;;;;;5.75;2.28;;;29.60;99.90;;;;;;5056711;28;21034;-70
2022/08/16 12:16:27;;;;;;;4.22;2.55;;;29.50;99.90;;;;;;5054907;28;20055;-69
2022/08/16 12:18:53;;;;;;;3.50;1.85;;;29.70;99.90;;;;;;5055591;28;20040;-77
2022/08/16 12:21:18;;;;;;;2.97;1.92;;;30.00;99.90;;;;;;5037817;28;20412;-72
2022/08/16 12:23:44;;;;;;;5.30;2.38;;;30.20;99.90;;;;;;5052340;28;20425;-71
2022/08/16 12:26:09;;;;;;;8.80;2.08;;;30.40;99.90;;;;;;5053078;28;20100;-71
2022/08/16 12:28:35;;;;;;;3.30;2.13;;;30.50;99.90;;;;;;5050035;28;20025;-70
2022/08/16 12:31:01;;;;;;;8.68;2.72;;;30.80;99.90;;;;;;5056719;28;20034;-73
2022/08/16 12:33:26;;;;;;;3.60;2.00;;;31.00;99.90;;;;;;5053603;28;20505;-71
2022/08/16 12:35:52;;;;;;;3.10;2.22;;;31.30;99.90;;;;;;5048777;28;20041;-71
2022/08/16 12:38:17;;;;;;;2.17;1.77;;;31.50;99.90;;;;;;5044888;28;20507;-72
2022/08/16 12:40:48;;;;;;;4.07;2.20;;;31.50;99.90;;;;;;5045380;28;20132;-71
2022/08/16 12:43:15;;;;;;;4.78;2.25;;;31.60;99.90;;;;;;5044286;28;20037;-71